Historyczne dane pomiarowe

Dodano dane terminowe – wersja testowa.

Dane z okresu 1951-2019

Wersja bazy: 1.34 [2019-03-16, lista zmian], aktualizacja planowana na 2019-04-15

Dane meteo z obszaru Polski uzyskane na podstawie danych udostępnionych przez Instytut Meteorologii i Gospodarki Wodnej – Państwowy Instytut Badawczy.

 

Wybierz Datę:    

       

TemperaturaWilgotnośćWiatrCiśnienieOpadyŚniegCzas trwania zjawisk
 Stacja t tx tn tng RH VA  wxwx mslp ppp RRR   cm mm wxwxwxwxwxwxwx
1994-08-14 13.1 19.0 10.4 8.7 78.5- 6.3 4.0---- 2.2------------
1994-08-13 17.7 22.6 11.6 9.7 76.8- 8.0 1.7---- 1.0------------
1994-08-12 17.8 23.8 12.6 9.9 76.8- 6.0 2.0---- 0.0------------
1994-08-11 19.4 25.0 12.0 10.1 68.3- 5.3 2.7---- 0.0------------
1994-08-10 19.0 25.0 12.5 9.9 74.3- 2.3 2.7---- 0.0------------
1994-08-09 18.1 23.5 14.2 11.9 92.0- 7.7 2.3---- 22.8------------
1994-08-08 19.8 26.0 15.2 13.5 77.3- 6.0 2.0---- 0.0------------
1994-08-07 21.1 26.2 15.6 13.9 72.3- 3.7 2.3---- 0.0------------
1994-08-06 23.1 32.8 15.4 13.5 71.3- 5.0 2.3---- 0.0------------
1994-08-05 23.2 31.2 14.6 12.7 74.3- 4.3 1.3---- 0.0------------
1994-08-04 22.1 27.4 17.1 14.1 73.0- 4.7 2.3---- 0.0------------
1994-08-03 20.7 28.0 18.3 17.1 91.0- 8.0 2.7---- 53.8------------
1994-08-02 24.8 34.5 18.3 14.8 67.3- 7.3 1.3---- 0.6------------
1994-08-01 26.8 34.2 20.7 18.1 60.5- 3.3 3.3---- 0.0------------
1994-07-31 27.5 36.4 20.2 17.6 61.0- 7.0 1.7---- 0.0------------
1994-07-30 26.7 35.9 17.1 15.9 54.5- 1.3 1.7---- 0.0------------
1994-07-29 27.1 35.7 16.6 14.9 56.3- 1.3 0.3---- 0.0------------
1994-07-28 24.4 35.4 14.7 13.1 64.5- 3.0 1.7---- 0.0------------
1994-07-27 24.7 34.4 13.0 11.7 52.5- 2.0 1.3---- 0.0------------
1994-07-26 23.2 32.3 12.0 11.4 56.5- 1.0 1.7---- 0.0------------
1994-07-25 21.8 29.8 12.1 9.4 58.0- 0.0 2.3---- 0.0------------
1994-07-24 20.6 29.7 10.4 8.9 58.8- 0.0 2.3---- 0.0------------
1994-07-23 19.6 27.5 9.2 7.6 57.0- 2.3 1.7---- 0.0------------
1994-07-22 18.0 24.8 8.4 6.0 69.0- 0.3 2.7---- 0.0------------
1994-07-21 18.1 27.5 8.5 6.2 61.3- 1.3 3.0---- 0.0------------
1994-07-20 17.3 23.0 10.1 7.6 64.5- 1.0 2.3---- 0.0------------
1994-07-19 16.6 22.0 9.7 7.1 62.5- 1.3 2.3---- 0.0------------
1994-07-18 16.6 22.5 9.5 6.8 69.3- 1.7 2.7---- 0.0------------
1994-07-17 18.0 24.5 8.7 7.9 79.0- 7.0 2.7---- 0.0------------
1994-07-16 20.8 27.2 16.2 13.9 79.8- 7.3 1.3---- 8.2------------
1994-07-15 25.0 32.2 16.6 13.7 62.5- 4.3 1.0---- 0.0------------
1994-07-14 24.3 31.5 16.0 13.4 68.0- 5.0 2.0---- 0.0------------
1994-07-13 23.0 31.0 15.3 11.9 65.8- 4.3 2.0---- 0.0------------
1994-07-12 21.3 28.2 13.5 11.1 68.0- 3.3 2.7---- 0.0------------
1994-07-11 19.1 26.5 9.5 7.7 69.8- 0.0 2.7---- 0.0------------
1994-07-10 18.7 25.2 11.0 8.8 75.3- 0.0 2.0---- 0.0------------
1994-07-09 15.4 20.5 10.4 8.1 84.0- 5.7 2.7---- 0.0------------
1994-07-08 14.1 17.2 9.1 6.3 87.3- 7.7 1.7---- 13.7------------
1994-07-07 15.6 22.5 7.3 4.2 71.3- 1.3 2.0---- 0.0------------
1994-07-06 16.2 23.0 9.9 6.0 67.3- 3.0 2.3---- 0.0------------
1994-07-05 15.9 21.2 8.5 5.5 71.8- 3.3 2.3---- 0.0------------
1994-07-04 16.7 23.6 7.7 4.5 61.8- 0.0 2.0---- 0.0------------
1994-07-03 15.9 22.8 5.7 3.4 66.0- 4.0 2.0---- 0.0------------
1994-07-02 14.8 22.0 6.3 4.0 67.0- 0.0 2.7---- 0.0------------
1994-07-01 16.1 22.5 9.8 8.4 67.8- 2.0 2.7---- 0.0------------
1994-06-30 19.5 26.2 17.2 12.9 63.8- 5.3 2.7---- 0.0------------
1994-06-29 22.3 30.0 12.5 7.0 67.3- 2.7 1.7---- 1.0------------
1994-06-28 18.9 28.0 11.5 6.3 68.3- 0.7 1.7---- 0.0------------
1994-06-27 21.4 26.7 13.7 8.0 65.8- 5.7 1.7---- 0.0------------
1994-06-26 20.8 30.5 10.6 1.7 58.0- 2.0 2.0---- 0.0------------
1994-06-25 16.1 23.0 4.6 -1.5 58.8- 0.0 1.7---- 0.0------------
1994-06-24 13.9 19.0 9.5 5.1 60.3- 3.3 2.3---- 0.0------------
1994-06-23 13.6 17.0 10.0 5.3 61.5- 3.7 6.7---- 1.9------------
1994-06-22 16.7 20.0 14.1 10.2 80.0- 7.7 2.7---- 0.9------------
1994-06-21 14.3 22.0 5.1 -0.3 65.5- 5.0 1.3---- 0.3------------
1994-06-20 13.9 17.0 10.6 6.8 60.5- 4.0 3.3---- 0.0------------
1994-06-19 12.7 16.2 10.0 6.8 85.0- 8.0 2.7---- 0.9------------
1994-06-18 11.3 17.2 3.0 -2.1 71.5- 6.3 2.0---- 1.9------------
1994-06-17 8.7 13.5 5.1 0.7 82.5- 5.7 2.3---- 3.7------------
1994-06-16 11.3 14.6 8.4 5.3 67.0- 5.3 2.7---- 1.7------------
332.0 ms

 

Źródłem pochodzenia danych jest Instytut Meteorologii i Gospodarki Wodnej – Państwowy Instytut Badawczy. Dane Instytutu Meteorologii i Gospodarki Wodnej – Państwowego Instytutu Badawczego zostały przetworzone.

Dane źródłowe można odnaleźć na stronie https://dane.imgw.pl